createdAt,value
2018-12-20T00:01:23.070Z,79.10
2018-12-20T00:03:52.159Z,79.32
2018-12-20T00:06:21.167Z,78.76
2018-12-20T00:08:50.242Z,79.06
2018-12-20T00:11:19.211Z,79.33
2018-12-20T00:13:47.983Z,79.17
2018-12-20T00:16:16.994Z,78.50
2018-12-20T00:18:45.995Z,78.33
2018-12-20T00:21:14.714Z,78.25
2018-12-20T00:23:43.579Z,78.69
2018-12-20T00:26:12.555Z,78.77
2018-12-20T00:28:41.384Z,79.00
2018-12-20T00:31:13.592Z,78.68
2018-12-20T00:33:40.931Z,79.30
2018-12-20T00:36:09.809Z,79.63
2018-12-20T00:38:38.800Z,79.06
2018-12-20T00:41:07.783Z,79.39
2018-12-20T00:43:36.834Z,79.19
2018-12-20T00:46:05.578Z,79.51
2018-12-20T00:48:34.365Z,79.53
2018-12-20T00:51:03.462Z,79.30
2018-12-20T00:53:32.953Z,80.02
2018-12-20T00:56:02.335Z,80.38
2018-12-20T00:58:31.305Z,80.49
2018-12-20T01:01:00.068Z,80.37
2018-12-20T01:03:28.893Z,80.07
2018-12-20T01:05:57.964Z,79.86
2018-12-20T01:08:27.100Z,80.08
2018-12-20T01:10:58.137Z,80.38
2018-12-20T01:13:27.146Z,80.14
2018-12-20T01:15:56.138Z,80.63
2018-12-20T01:18:25.021Z,80.48
2018-12-20T01:20:54.289Z,80.75
2018-12-20T01:23:23.012Z,80.10
2018-12-20T01:25:51.927Z,81.07
2018-12-20T01:28:20.941Z,81.22
2018-12-20T01:30:50.010Z,81.27
2018-12-20T01:33:18.985Z,81.45
2018-12-20T01:35:47.899Z,81.25
2018-12-20T01:38:16.868Z,80.54
2018-12-20T01:40:45.593Z,80.98
2018-12-20T01:43:14.709Z,80.82
2018-12-20T01:45:43.686Z,80.62
2018-12-20T01:48:12.648Z,80.51
2018-12-20T01:50:41.892Z,80.62
2018-12-20T01:53:10.987Z,80.31
2018-12-20T01:55:39.666Z,80.55
2018-12-20T01:58:08.507Z,80.93
2018-12-20T02:00:37.571Z,81.00
2018-12-20T02:03:06.388Z,81.07
2018-12-20T02:05:35.404Z,81.59
2018-12-20T02:08:04.495Z,81.62
2018-12-20T02:10:33.352Z,81.41
2018-12-20T02:13:02.540Z,81.38
2018-12-20T02:15:31.484Z,81.70
2018-12-20T02:18:00.463Z,81.13
2018-12-20T02:20:29.210Z,81.49
2018-12-20T02:22:58.079Z,81.53
2018-12-20T02:25:33.634Z,81.93
2018-12-20T02:28:02.729Z,82.00
2018-12-20T02:30:31.859Z,81.56
2018-12-20T02:33:00.810Z,81.83
2018-12-20T02:35:29.758Z,81.26
2018-12-20T02:37:58.983Z,81.01
2018-12-20T02:40:28.523Z,80.84
2018-12-20T02:42:57.585Z,80.97
2018-12-20T02:45:26.683Z,81.15
2018-12-20T02:47:55.470Z,81.06
2018-12-20T02:50:24.290Z,80.41
2018-12-20T02:52:53.224Z,80.65
2018-12-20T02:55:21.909Z,80.57
2018-12-20T02:57:50.699Z,80.51
2018-12-20T03:00:19.467Z,80.58
2018-12-20T03:02:48.315Z,80.65
2018-12-20T03:05:17.312Z,80.82
2018-12-20T03:07:46.401Z,80.92
2018-12-20T03:10:15.772Z,81.46
2018-12-20T03:12:44.782Z,80.90
2018-12-20T03:15:19.803Z,81.30
2018-12-20T03:17:44.458Z,81.91
2018-12-20T03:20:13.937Z,81.63
2018-12-20T03:22:42.659Z,81.22
2018-12-20T03:25:11.652Z,81.77
2018-12-20T03:27:40.634Z,81.96
2018-12-20T03:30:10.052Z,81.83
2018-12-20T03:32:39.236Z,81.33
2018-12-20T03:35:08.164Z,81.59
2018-12-20T03:37:37.172Z,81.67
2018-12-20T03:40:07.132Z,81.07
2018-12-20T03:42:36.115Z,81.38
2018-12-20T03:45:06.243Z,82.01
2018-12-20T03:47:35.441Z,81.97
2018-12-20T03:50:05.575Z,81.73
2018-12-20T03:52:34.661Z,81.89
2018-12-20T03:55:03.849Z,81.67
2018-12-20T03:57:32.650Z,81.48
2018-12-20T04:00:01.502Z,81.56
2018-12-20T04:02:30.577Z,81.16
2018-12-20T04:04:59.515Z,81.33
2018-12-20T04:07:28.282Z,81.77
2018-12-20T04:09:57.262Z,81.44
2018-12-20T04:12:27.140Z,81.33
2018-12-20T04:14:56.159Z,81.06
2018-12-20T04:17:25.479Z,81.20
2018-12-20T04:19:54.629Z,80.91
2018-12-20T04:22:23.791Z,81.12
2018-12-20T04:24:53.166Z,81.47
2018-12-20T04:27:22.271Z,81.29
2018-12-20T04:29:51.098Z,81.15
2018-12-20T04:32:20.041Z,81.77
2018-12-20T04:34:49.039Z,81.48
2018-12-20T04:37:18.024Z,81.68
2018-12-20T04:39:46.939Z,80.88
2018-12-20T04:42:15.925Z,81.88
2018-12-20T04:44:44.673Z,80.95
2018-12-20T04:47:13.778Z,81.30
2018-12-20T04:49:42.879Z,80.39
2018-12-20T04:52:11.858Z,80.27
2018-12-20T04:54:40.851Z,80.67
2018-12-20T04:57:09.639Z,80.32
2018-12-20T04:59:38.378Z,80.89
2018-12-20T05:02:07.349Z,81.14
2018-12-20T05:04:36.307Z,81.01
2018-12-20T05:07:05.361Z,80.99
2018-12-20T05:09:35.118Z,81.81
2018-12-20T05:12:04.351Z,81.62
2018-12-20T05:14:33.605Z,81.20
2018-12-20T05:17:02.572Z,82.09
2018-12-20T05:19:31.872Z,81.44
2018-12-20T05:22:00.929Z,81.14
2018-12-20T05:24:29.933Z,81.29
2018-12-20T05:26:58.948Z,81.32
2018-12-20T05:29:27.725Z,81.17
2018-12-20T05:31:56.798Z,81.07
2018-12-20T05:34:26.023Z,81.08
2018-12-20T05:36:55.167Z,81.23
2018-12-20T05:39:24.817Z,81.35
2018-12-20T05:41:53.797Z,81.47
2018-12-20T05:44:23.063Z,81.66
2018-12-20T05:46:52.295Z,81.61
2018-12-20T05:49:21.275Z,82.21
2018-12-20T05:51:50.366Z,81.97
2018-12-20T05:54:19.661Z,82.29
2018-12-20T05:56:48.658Z,82.04
2018-12-20T05:59:17.562Z,81.83
2018-12-20T06:01:46.614Z,81.55
2018-12-20T06:04:15.761Z,81.82
2018-12-20T06:06:44.813Z,81.75
2018-12-20T06:09:13.549Z,82.11
2018-12-20T06:11:42.346Z,82.63
2018-12-20T06:14:11.163Z,82.32
2018-12-20T06:16:40.172Z,82.48
2018-12-20T06:19:08.984Z,83.31
2018-12-20T06:21:37.814Z,82.95
2018-12-20T06:24:06.773Z,83.00
2018-12-20T06:26:35.445Z,82.13
2018-12-20T06:29:04.180Z,81.96
2018-12-20T06:31:33.170Z,82.04
2018-12-20T06:34:01.952Z,82.10
2018-12-20T06:36:30.882Z,82.45
2018-12-20T06:38:59.637Z,81.67
2018-12-20T06:41:28.417Z,81.54
2018-12-20T06:43:57.177Z,81.31
2018-12-20T06:46:26.014Z,82.15
2018-12-20T06:48:54.714Z,81.43
2018-12-20T06:51:23.570Z,82.08
2018-12-20T06:53:52.273Z,81.71
2018-12-20T06:56:21.019Z,80.91
2018-12-20T06:58:49.775Z,81.69
2018-12-20T07:01:18.508Z,81.53
2018-12-20T07:03:47.268Z,80.82
2018-12-20T07:06:16.026Z,81.12
2018-12-20T07:08:44.785Z,81.00
2018-12-20T07:11:13.505Z,80.23
2018-12-20T07:13:42.222Z,79.94
2018-12-20T07:16:10.945Z,80.60
2018-12-20T07:18:39.786Z,80.02
2018-12-20T07:21:08.726Z,80.20
2018-12-20T07:23:37.560Z,79.75
2018-12-20T07:26:06.302Z,79.55
2018-12-20T07:28:35.116Z,79.61
2018-12-20T07:31:03.941Z,78.91
2018-12-20T07:33:32.629Z,79.12
2018-12-20T07:36:01.332Z,79.36
2018-12-20T07:38:30.003Z,79.23
2018-12-20T07:40:58.774Z,79.41
2018-12-20T07:43:27.814Z,79.31
2018-12-20T07:45:56.513Z,78.66
2018-12-20T07:48:32.017Z,78.87
2018-12-20T07:50:56.020Z,78.29
2018-12-20T07:53:24.726Z,78.55
2018-12-20T07:55:53.466Z,79.08
2018-12-20T07:58:22.269Z,78.44
2018-12-20T08:00:51.116Z,78.95
2018-12-20T08:03:19.816Z,78.72
2018-12-20T08:05:48.555Z,78.26
2018-12-20T08:08:17.305Z,78.67
2018-12-20T08:10:46.081Z,78.29
2018-12-20T08:13:14.837Z,78.56
2018-12-20T08:15:43.586Z,77.90
2018-12-20T08:18:12.378Z,77.78
2018-12-20T08:20:41.150Z,77.41
2018-12-20T08:23:09.970Z,77.28
2018-12-20T08:25:40.295Z,77.39
2018-12-20T08:28:09.472Z,77.49
2018-12-20T08:30:38.187Z,77.09
2018-12-20T08:33:07.000Z,76.34
2018-12-20T08:35:35.695Z,75.98
2018-12-20T08:38:04.423Z,75.81
2018-12-20T08:40:33.163Z,75.55
2018-12-20T08:43:01.914Z,76.10
2018-12-20T08:45:30.646Z,76.34
2018-12-20T08:47:59.415Z,76.29
2018-12-20T08:50:28.179Z,75.76
2018-12-20T08:52:56.943Z,75.04
2018-12-20T08:55:25.699Z,74.67
2018-12-20T08:57:54.456Z,75.02
2018-12-20T09:00:23.346Z,74.83
2018-12-20T09:02:52.251Z,74.43
2018-12-20T09:05:21.014Z,74.42
2018-12-20T09:07:49.911Z,73.98
2018-12-20T09:10:18.676Z,74.60
2018-12-20T09:12:47.483Z,74.33
2018-12-20T09:15:16.270Z,74.93
2018-12-20T09:17:45.204Z,74.36
2018-12-20T09:20:14.429Z,74.94
2018-12-20T09:22:43.165Z,75.05
2018-12-20T09:25:11.936Z,74.78
2018-12-20T09:27:40.682Z,74.09
2018-12-20T09:30:11.422Z,74.64
2018-12-20T09:32:40.147Z,74.28
2018-12-20T09:35:09.063Z,74.13
2018-12-20T09:37:37.835Z,74.25
2018-12-20T09:40:06.637Z,73.56
2018-12-20T09:42:35.389Z,73.29
2018-12-20T09:45:04.706Z,71.94
2018-12-20T09:47:38.798Z,72.10
2018-12-20T09:50:08.433Z,71.65
2018-12-20T09:52:37.231Z,71.73
2018-12-20T09:55:06.372Z,72.14
2018-12-20T09:57:35.187Z,72.42
2018-12-20T10:00:11.689Z,72.28
2018-12-20T10:02:40.441Z,71.67
2018-12-20T10:05:09.810Z,71.54
2018-12-20T10:07:38.473Z,70.65
2018-12-20T10:10:08.922Z,71.30
2018-12-20T10:12:37.728Z,70.52
2018-12-20T10:15:07.587Z,70.66
2018-12-20T10:17:36.432Z,71.15
2018-12-20T10:20:06.702Z,70.58
2018-12-20T10:22:35.507Z,70.37
2018-12-20T10:25:04.756Z,70.89
2018-12-20T10:27:33.476Z,70.92
2018-12-20T10:30:02.211Z,72.16
2018-12-20T10:32:30.917Z,71.87
2018-12-20T10:34:59.650Z,71.02
2018-12-20T10:37:28.384Z,70.72
2018-12-20T10:39:57.223Z,71.44
2018-12-20T10:42:26.062Z,71.50
2018-12-20T10:44:54.858Z,71.19
2018-12-20T10:47:28.824Z,70.40
2018-12-20T10:50:01.752Z,70.34
2018-12-20T10:52:30.520Z,70.17
2018-12-20T10:54:59.247Z,70.15
2018-12-20T10:57:27.909Z,69.88
2018-12-20T10:59:56.666Z,69.29
2018-12-20T11:02:30.659Z,69.77
2018-12-20T11:05:04.899Z,69.33
2018-12-20T11:07:38.896Z,69.09
2018-12-20T11:10:14.577Z,68.93
2018-12-20T11:12:48.193Z,69.14
2018-12-20T11:15:17.543Z,69.20
2018-12-20T11:17:46.375Z,69.15
2018-12-20T11:20:15.138Z,69.00
2018-12-20T11:22:43.826Z,69.19
2018-12-20T11:25:12.951Z,69.29
2018-12-20T11:27:41.762Z,69.24
2018-12-20T11:30:11.862Z,69.22
2018-12-20T11:32:40.689Z,69.10
2018-12-20T11:35:09.572Z,68.80
2018-12-20T11:37:38.276Z,69.23
2018-12-20T11:40:08.325Z,69.63
2018-12-20T11:42:37.185Z,69.88
2018-12-20T11:45:07.378Z,70.33
2018-12-20T11:47:36.198Z,69.52
2018-12-20T11:50:05.976Z,69.96
2018-12-20T11:52:42.174Z,70.02
2018-12-20T11:55:06.056Z,70.45
2018-12-20T11:57:34.897Z,69.98
2018-12-20T12:00:07.843Z,69.62
2018-12-20T12:02:36.672Z,69.98
2018-12-20T12:05:05.669Z,69.60
2018-12-20T12:07:34.506Z,69.29
2018-12-20T12:10:05.421Z,70.12
2018-12-20T12:12:34.575Z,70.15
2018-12-20T12:15:03.854Z,70.03
2018-12-20T12:17:32.830Z,69.68
2018-12-20T12:20:01.530Z,70.09
2018-12-20T12:22:30.332Z,69.56
2018-12-20T12:24:59.133Z,69.78
2018-12-20T12:27:27.847Z,70.74
2018-12-20T12:29:56.539Z,71.02
2018-12-20T12:32:25.456Z,71.05
2018-12-20T12:34:54.349Z,70.94
2018-12-20T12:37:23.097Z,71.19
2018-12-20T12:39:51.890Z,71.23
2018-12-20T12:42:20.649Z,70.73
2018-12-20T12:44:49.490Z,71.51
2018-12-20T12:47:22.527Z,71.75
2018-12-20T12:49:51.278Z,71.94
2018-12-20T12:52:20.163Z,71.94
2018-12-20T12:54:48.887Z,71.82
2018-12-20T12:57:17.614Z,71.77
2018-12-20T12:59:47.517Z,72.09
2018-12-20T13:02:16.542Z,72.80
2018-12-20T13:04:45.352Z,72.60
2018-12-20T13:07:14.523Z,72.61
2018-12-20T13:09:43.393Z,73.21
2018-12-20T13:12:12.117Z,73.08
2018-12-20T13:14:41.390Z,73.62
2018-12-20T13:17:10.108Z,73.11
2018-12-20T13:19:38.922Z,73.03
2018-12-20T13:22:07.650Z,73.48
2018-12-20T13:24:36.476Z,73.72
2018-12-20T13:27:06.395Z,74.05
2018-12-20T13:29:35.235Z,74.35
2018-12-20T13:32:03.926Z,73.62
2018-12-20T13:34:39.490Z,73.82
2018-12-20T13:37:15.619Z,73.96
2018-12-20T13:39:39.192Z,73.89
2018-12-20T13:42:07.908Z,74.48
2018-12-20T13:44:36.638Z,74.93
2018-12-20T13:47:05.334Z,74.75
2018-12-20T13:49:34.040Z,74.78
2018-12-20T13:52:02.829Z,75.26
2018-12-20T13:54:31.520Z,75.21
2018-12-20T13:57:00.439Z,75.75
2018-12-20T13:59:29.249Z,76.33
2018-12-20T14:01:58.006Z,76.46
2018-12-20T14:04:27.236Z,76.30
2018-12-20T14:06:55.998Z,76.63
2018-12-20T14:09:24.682Z,76.29
2018-12-20T14:11:53.468Z,75.69
2018-12-20T14:14:22.359Z,76.23
2018-12-20T14:16:53.529Z,76.58
2018-12-20T14:19:22.430Z,76.34
2018-12-20T14:21:54.622Z,76.15
2018-12-20T14:24:23.387Z,76.70
2018-12-20T14:26:52.664Z,77.21
2018-12-20T14:29:24.063Z,77.69
2018-12-20T14:31:53.040Z,77.12
2018-12-20T14:34:21.796Z,76.99
2018-12-20T14:36:50.979Z,77.13
2018-12-20T14:39:19.772Z,77.06
2018-12-20T14:41:48.567Z,77.47
2018-12-20T14:44:17.296Z,78.26
2018-12-20T14:46:46.057Z,77.30
2018-12-20T14:49:14.923Z,76.75
2018-12-20T14:51:43.722Z,78.05
2018-12-20T14:54:12.816Z,77.65
2018-12-20T14:56:41.892Z,77.61
2018-12-20T14:59:10.650Z,77.46
2018-12-20T15:01:40.719Z,77.58
2018-12-20T15:04:09.492Z,77.86
2018-12-20T15:06:38.725Z,77.37
2018-12-20T15:09:08.410Z,77.36
2018-12-20T15:11:37.324Z,77.90
2018-12-20T15:14:06.209Z,77.81
2018-12-20T15:16:35.414Z,77.47
2018-12-20T15:19:04.697Z,77.51
2018-12-20T15:21:33.468Z,77.37
2018-12-20T15:24:02.209Z,77.75
2018-12-20T15:26:30.964Z,77.21
2018-12-20T15:28:59.832Z,78.29
2018-12-20T15:31:28.627Z,77.41
2018-12-20T15:33:57.382Z,77.93
2018-12-20T15:36:26.150Z,78.18
2018-12-20T15:38:54.859Z,77.94
2018-12-20T15:41:23.669Z,78.09
2018-12-20T15:43:52.418Z,78.53
2018-12-20T15:46:22.329Z,79.37
2018-12-20T15:48:56.443Z,79.50
2018-12-20T15:51:24.327Z,80.02
2018-12-20T15:53:53.015Z,79.84
2018-12-20T15:56:21.694Z,79.58
2018-12-20T15:58:50.444Z,79.73
2018-12-20T16:01:19.485Z,79.46
2018-12-20T16:03:48.276Z,79.85
2018-12-20T16:06:17.343Z,80.10
2018-12-20T16:08:46.137Z,80.08
2018-12-20T16:11:15.064Z,79.78
2018-12-20T16:13:43.816Z,79.70
2018-12-20T16:16:13.150Z,79.86
2018-12-20T16:18:42.571Z,79.51
2018-12-20T16:21:11.263Z,79.39
2018-12-20T16:23:40.222Z,80.00
2018-12-20T16:26:08.902Z,79.66
2018-12-20T16:28:37.673Z,80.09
2018-12-20T16:31:06.423Z,80.04
2018-12-20T16:33:35.256Z,79.81
2018-12-20T16:36:04.667Z,79.30
2018-12-20T16:38:33.360Z,79.72
2018-12-20T16:41:02.094Z,79.95
2018-12-20T16:43:30.941Z,79.32
2018-12-20T16:45:59.664Z,79.58
2018-12-20T16:48:28.361Z,79.28
2018-12-20T16:50:57.122Z,78.84
2018-12-20T16:53:25.854Z,79.36
2018-12-20T16:55:54.608Z,79.53
2018-12-20T16:58:23.374Z,78.80
2018-12-20T17:00:52.107Z,79.12
2018-12-20T17:03:20.946Z,79.11
2018-12-20T17:05:49.827Z,78.88
2018-12-20T17:08:18.609Z,78.57
2018-12-20T17:10:47.382Z,78.79
2018-12-20T17:13:16.180Z,79.46
2018-12-20T17:15:44.884Z,79.40
2018-12-20T17:18:13.654Z,79.84
2018-12-20T17:20:42.487Z,79.86
2018-12-20T17:23:11.366Z,80.50
2018-12-20T17:25:40.096Z,80.47
2018-12-20T17:28:08.847Z,80.85
2018-12-20T17:30:37.603Z,80.72
2018-12-20T17:33:06.373Z,80.06
2018-12-20T17:35:35.166Z,80.42
2018-12-20T17:38:03.963Z,80.08
2018-12-20T17:40:32.809Z,79.67
2018-12-20T17:43:08.416Z,79.90
2018-12-20T17:45:37.191Z,79.41
2018-12-20T17:48:05.937Z,79.79
2018-12-20T17:50:34.704Z,79.64
2018-12-20T17:53:03.931Z,79.68
2018-12-20T17:55:32.632Z,79.47
2018-12-20T17:58:01.386Z,80.14
2018-12-20T18:00:30.157Z,79.64
2018-12-20T18:02:58.879Z,79.52
2018-12-20T18:05:27.623Z,80.17
2018-12-20T18:07:56.580Z,81.10
2018-12-20T18:10:25.455Z,81.15
2018-12-20T18:12:54.223Z,80.82
2018-12-20T18:15:23.248Z,80.97
2018-12-20T18:17:52.436Z,81.33
2018-12-20T18:20:21.229Z,80.89
2018-12-20T18:22:49.968Z,81.14
2018-12-20T18:25:18.713Z,81.09
2018-12-20T18:27:47.526Z,81.23
2018-12-20T18:30:16.766Z,81.53
2018-12-20T18:32:45.484Z,82.08
2018-12-20T18:35:14.225Z,81.85
2018-12-20T18:37:43.028Z,82.53
2018-12-20T18:40:11.757Z,82.59
2018-12-20T18:42:40.525Z,82.57
2018-12-20T18:45:10.669Z,82.65
2018-12-20T18:47:39.436Z,82.14
2018-12-20T18:50:10.623Z,82.93
2018-12-20T18:52:39.393Z,83.14
2018-12-20T18:55:08.638Z,82.56
2018-12-20T18:57:37.495Z,82.49
2018-12-20T19:00:14.673Z,81.63
2018-12-20T19:02:43.391Z,82.43
2018-12-20T19:05:12.083Z,82.39
2018-12-20T19:07:40.824Z,81.65
2018-12-20T19:10:10.226Z,81.43
2018-12-20T19:12:38.941Z,81.26
2018-12-20T19:15:09.190Z,81.53
2018-12-20T19:17:38.165Z,82.17
2018-12-20T19:20:15.952Z,82.68
2018-12-20T19:22:39.506Z,82.67
2018-12-20T19:25:08.444Z,82.37
2018-12-20T19:27:37.215Z,81.84
2018-12-20T19:30:13.643Z,82.46
2018-12-20T19:32:42.333Z,82.74
2018-12-20T19:35:12.484Z,83.08
2018-12-20T19:37:41.267Z,83.31
2018-12-20T19:40:12.334Z,83.57
2018-12-20T19:42:41.375Z,82.67
2018-12-20T19:45:10.615Z,82.95
2018-12-20T19:47:39.391Z,83.37
2018-12-20T19:50:16.434Z,83.62
2018-12-20T19:52:45.435Z,83.20
2018-12-20T19:55:14.225Z,83.21
2018-12-20T19:57:42.939Z,82.71
2018-12-20T20:00:14.479Z,82.56
2018-12-20T20:02:43.184Z,83.25
2018-12-20T20:05:12.035Z,83.71
2018-12-20T20:07:40.767Z,83.80
2018-12-20T20:10:11.333Z,84.34
2018-12-20T20:12:40.133Z,84.35
2018-12-20T20:15:16.345Z,84.35
2018-12-20T20:17:42.188Z,84.63
2018-12-20T20:20:14.190Z,84.21
2018-12-20T20:22:41.769Z,84.01
2018-12-20T20:25:11.105Z,84.12
2018-12-20T20:27:40.286Z,84.13
2018-12-20T20:30:14.834Z,85.34
2018-12-20T20:32:43.581Z,85.34
2018-12-20T20:35:12.672Z,85.22
2018-12-20T20:37:41.480Z,85.80
2018-12-20T20:40:11.438Z,86.03
2018-12-20T20:42:40.220Z,85.55
2018-12-20T20:45:09.052Z,85.81
2018-12-20T20:47:37.804Z,85.55
2018-12-20T20:50:09.597Z,85.91
2018-12-20T20:52:38.386Z,85.37
2018-12-20T20:55:09.300Z,85.79
2018-12-20T20:57:37.973Z,85.51
2018-12-20T21:00:13.152Z,85.49
2018-12-20T21:02:42.373Z,85.54
2018-12-20T21:05:11.748Z,85.45
2018-12-20T21:07:40.541Z,85.48
2018-12-20T21:10:11.668Z,85.18
2018-12-20T21:12:40.457Z,85.28
2018-12-20T21:15:11.471Z,85.52
2018-12-20T21:17:40.859Z,85.44
2018-12-20T21:20:11.998Z,85.09
2018-12-20T21:22:40.736Z,84.74
2018-12-20T21:25:09.497Z,84.77
2018-12-20T21:27:38.159Z,84.71
2018-12-20T21:30:14.870Z,84.67
2018-12-20T21:32:44.497Z,85.02
2018-12-20T21:35:13.406Z,84.69
2018-12-20T21:37:42.179Z,83.88
2018-12-20T21:40:11.407Z,84.29
2018-12-20T21:42:40.168Z,84.45
2018-12-20T21:45:10.082Z,84.43
2018-12-20T21:47:38.809Z,84.36
2018-12-20T21:50:09.859Z,84.72
2018-12-20T21:52:38.568Z,84.71
2018-12-20T21:55:08.397Z,85.42
2018-12-20T21:57:37.111Z,85.41
2018-12-20T22:00:11.616Z,84.90
2018-12-20T22:02:40.368Z,85.57
2018-12-20T22:05:09.741Z,85.87
2018-12-20T22:07:38.525Z,85.08
2018-12-20T22:10:08.602Z,85.07
2018-12-20T22:12:37.270Z,85.53
2018-12-20T22:15:07.052Z,86.11
2018-12-20T22:17:35.998Z,85.59
2018-12-20T22:20:05.609Z,86.20
2018-12-20T22:22:34.391Z,86.30
2018-12-20T22:25:03.185Z,86.18
2018-12-20T22:27:31.933Z,86.34
2018-12-20T22:30:00.704Z,85.94
2018-12-20T22:32:29.494Z,85.92
2018-12-20T22:34:58.296Z,86.25
2018-12-20T22:37:27.099Z,85.85
2018-12-20T22:39:55.792Z,86.58
2018-12-20T22:42:24.541Z,86.72
2018-12-20T22:44:53.283Z,86.66
2018-12-20T22:47:22.045Z,86.42
2018-12-20T22:49:50.763Z,86.88
2018-12-20T22:52:19.558Z,87.04
2018-12-20T22:54:48.287Z,86.62
2018-12-20T22:57:17.013Z,86.05
2018-12-20T22:59:51.828Z,86.08
2018-12-20T23:02:20.736Z,86.43
2018-12-20T23:04:49.522Z,86.26
2018-12-20T23:07:18.273Z,86.52
2018-12-20T23:09:46.997Z,86.54
2018-12-20T23:12:17.951Z,85.94
2018-12-20T23:14:46.607Z,85.81
2018-12-20T23:17:15.428Z,85.84
2018-12-20T23:19:44.142Z,86.47
2018-12-20T23:22:12.877Z,85.88
2018-12-20T23:24:41.578Z,85.80
2018-12-20T23:27:10.348Z,85.47
2018-12-20T23:29:39.135Z,86.01
2018-12-20T23:32:07.868Z,85.53
2018-12-20T23:34:36.956Z,85.59
2018-12-20T23:37:05.823Z,85.35
2018-12-20T23:39:34.553Z,85.90
2018-12-20T23:42:03.281Z,85.41
2018-12-20T23:44:31.958Z,86.14
2018-12-20T23:47:00.660Z,86.44
2018-12-20T23:49:29.393Z,87.07
2018-12-20T23:51:58.152Z,87.47
2018-12-20T23:54:27.061Z,87.46
2018-12-20T23:56:57.771Z,86.56
2018-12-20T23:59:26.577Z,86.99
